Terminal Aerodrome Forecast
Issued by NWS Louisville, KY

Home | Current Version | Previous Version | Text Only | Print | Product List | Glossary On
Versions: 1 2 3 4 5 6 7 8 9 10 11 12 13 14 15
419
FTUS43 KLMK 302329
TAFLEX
TAF
KLEX 302329Z 0100/0124 27010KT P6SM FEW021 BKN080
     FM010400 26007KT P6SM BKN035
     FM011400 24010G18KT P6SM BKN035=

USA.gov is the U.S. government's official web portal to all federal, state and local government web resources and services.